ADDS METAR Data INFO
IDs: Format: Raw Decoded Include TAF

Data at: 0902 UTC 20 Oct 2017

KJAQ 200855Z AUTO 31017G27KT 1 1/4SM OVC003 11/10 A2991 RMK AO1 T01050100
KJAQ 200835Z AUTO 27019G28KT 5SM SCT012 SCT020 OVC029 13/12 A2988 RMK AO1 T01300116
KJAQ 200815Z AUTO 14006G18KT 100V180 10SM OVC029 14/11 A2985 RMK AO1 T01370108
KJAQ 200755Z AUTO 15008G16KT 10SM BKN028 OVC034 14/11 A2985 RMK AO1 T01400106 402030113
KJAQ 200735Z AUTO 14007G16KT 110V180 10SM BKN028 OVC033 14/11 A2986 RMK AO1 T01400105
KJAQ 200715Z AUTO 15006KT 10SM SCT020 BKN031 BKN038 14/11 A2987 RMK AO1 T01360105
KJAQ 200655Z AUTO 15005KT 10SM BKN016 BKN026 13/10 A2987 RMK AO1 T01330103
KJAQ 200635Z AUTO 15007KT 10SM OVC016 14/11 A2988 RMK AO1 T01400106
KJAQ 200615Z AUTO 16004KT 10SM OVC016 14/11 A2990 RMK AO1 T01400105
KJAQ 200555Z AUTO 10SM BKN016 OVC024 14/11 A2990 RMK AO1 T01370105 10181 20135
KJAQ 200535Z AUTO 00000KT 10SM SCT023 OVC028 14/11 A2990 RMK AO1 T01370105
KJAQ 200515Z AUTO 00000KT 10SM SCT022 OVC028 14/11 A2991 RMK AO1 T01360106
KJAQ 200455Z AUTO 15003KT 10SM SCT015 BKN024 OVC045 14/11 A2991 RMK AO1 T01360106
KJAQ 200435Z AUTO 08004KT 10SM OVC043 14/11 A2991 RMK AO1 T01360107
KJAQ 200415Z AUTO 07003KT 10SM OVC041 14/11 A2991 RMK AO1 T01370107
KJAQ 200355Z AUTO 08004KT 10SM OVC041 14/11 A2991 RMK AO1 T01390106
KJAQ 200335Z AUTO 03004KT 10SM OVC041 14/11 A2991 RMK AO1 T01400105
KJAQ 200315Z AUTO 00000KT 10SM OVC041 14/11 A2991 RMK AO1 T01400105
KJAQ 200255Z AUTO 32005KT 10SM OVC041 14/11 A2992 RMK AO1 T01420105
KJAQ 200235Z AUTO 35004KT 10SM OVC041 14/11 A2992 RMK AO1 T01410105
KJAQ 200215Z AUTO 31007KT 10SM OVC043 14/11 A2991 RMK AO1 T01430105
KJAQ 200155Z AUTO 30006KT 10SM OVC043 15/11 A2991 RMK AO1 T01450105
KJAQ 200135Z AUTO 30005KT 10SM OVC043 15/11 A2990 RMK AO1 T01480108
KJAQ 200115Z AUTO 30008KT 10SM OVC045 15/11 A2990 RMK AO1 T01530107
KJAQ 200055Z AUTO 30008KT 10SM BKN047 BKN065 BKN075 16/11 A2990 RMK AO1 T01560107
KJAQ 200035Z AUTO 29008KT 10SM BKN055 16/11 A2989 RMK AO1 T01610109
KJAQ 200015Z AUTO 28009G15KT 10SM SCT025 BKN070 17/11 A2990 RMK AO1 T01710110
KJAQ 192355Z AUTO 28007G18KT 10SM CLR 18/11 A2990 RMK AO1 T01810110 10203 20164
KJAQ 192335Z AUTO 27008KT 10SM SCT070 19/11 A2990 RMK AO1 T01870105
KJAQ 192315Z AUTO 29008KT 10SM SCT055 SCT070 19/10 A2991 RMK AO1 T01920102
KJAQ 192255Z AUTO 29007KT 10SM SCT070 SCT080 19/10 A2991 RMK AO1 T01920100
KJAQ 192235Z AUTO 29006KT 10SM SCT070 19/10 A2992 RMK AO1 T01900095
KJAQ 192215Z AUTO 28006KT 10SM BKN070 BKN080 19/09 A2992 RMK AO1 T01930087
KJAQ 192155Z AUTO 26004KT 10SM SCT060 BKN070 19/08 A2992 RMK AO1 T01870083
KJAQ 192135Z AUTO 26005KT 10SM BKN060 BKN070 19/09 A2993 RMK AO1 T01890088
KJAQ 192115Z AUTO 31004KT 10SM SCT060 BKN070 18/08 A2994 RMK AO1 T01830083
KJAQ 192055Z AUTO 29006KT 10SM BKN060 OVC070 19/09 A2994 RMK AO1 T01850085
KJAQ 192035Z AUTO 26005KT 10SM BKN060 OVC070 19/08 A2995 RMK AO1 T01890076
KJAQ 192015Z AUTO 28003KT 10SM SCT060 BKN070 19/07 A2995 RMK AO1 T01860071
KJAQ 191955Z AUTO 30006KT 10SM BKN070 19/07 A2996 RMK AO1 T01930069
KJAQ 191935Z AUTO 29005KT 10SM SCT070 20/05 A2997 RMK AO1 T01980047
KJAQ 191915Z AUTO 30004KT 10SM SCT060 SCT070 19/05 A2998 RMK AO1 T01920053
KJAQ 191855Z AUTO 31005KT 10SM 19/06 A2998 RMK AO1 T01880055
KJAQ 191835Z AUTO 00000KT 10SM BKN060 BKN070 BKN085 18/06 A2998 RMK AO1 T01750060
KJAQ 191815Z AUTO 33005KT 10SM SCT060 BKN070 BKN085 16/07 A2998 RMK AO1 T01640065
KJAQ 191755Z AUTO 34006KT 10SM OVC070 16/07 A2998 RMK AO1 T01630065 10169 20113
KJAQ 191735Z AUTO 34007KT 280V360 10SM SCT070 17/06 A2998 RMK AO1 T01680058
KJAQ 191715Z AUTO 34003KT 10SM CLR 16/06 A2998 RMK AO1 T01550056
KJAQ 191655Z AUTO 35005KT 10SM CLR 15/05 A2998 RMK AO1 T01520046
KJAQ 191635Z AUTO 00000KT 10SM CLR 14/06 A2998 RMK AO1 T01370056
KJAQ 191615Z AUTO 35006KT 10SM CLR 13/06 A2998 RMK AO1 T01320057
KJAQ 191555Z AUTO 34005KT 10SM SCT070 12/06 A2998 RMK AO1 T01200059
KJAQ 191535Z AUTO 33004KT 10SM BKN070 14/00 A2997 RMK AO1 T01440000
KJAQ 191515Z AUTO 00000KT 10SM SCT070 13/M01 A2996 RMK AO1 T01341009
KJAQ 191455Z AUTO 00000KT 10SM CLR 13/M01 A2996 RMK AO1 T01261009
KJAQ 191435Z AUTO 16003KT 10SM CLR 12/M01 A2996 RMK AO1 T01231008
KJAQ 191415Z AUTO 00000KT 10SM CLR 13/00 A2996 RMK AO1 T01261004
KJAQ 191355Z AUTO 00000KT 10SM CLR 13/00 A2996 RMK AO1 T01271001
KJAQ 191335Z AUTO 00000KT 10SM CLR 11/01 A2996 RMK AO1 T01140012
KJAQ 191315Z AUTO 14003KT 10SM CLR 13/00 A2996 RMK AO1 T01310002
KJAQ 191255Z AUTO 34003KT 10SM CLR 15/00 A2996 RMK AO1 T01450004
KJAQ 191235Z AUTO 00000KT 10SM CLR 14/01 A2996 RMK AO1 T01370013
KJAQ 191215Z AUTO 00000KT 10SM CLR 14/02 A2996 RMK AO1 T01360015
KJAQ 191150Z AUTO 03004KT 10SM CLR 12/03 A2996 RMK AO1 T01160031 10158 20113
KJAQ 191135Z AUTO 36006KT 10SM CLR 12/03 A2997 RMK AO1 T01170029
KJAQ 191115Z AUTO 36008KT 10SM CLR 12/01 A2996 RMK AO1 T01200005
KJAQ 191055Z AUTO 36005KT 10SM CLR 14/00 A2996 RMK AO1 T01371002
KJAQ 191035Z AUTO 00000KT 10SM CLR 14/00 A2996 RMK AO1 T01431003
KJAQ 191015Z AUTO 00000KT 10SM CLR 13/00 A2996 RMK AO1 T01311002
KJAQ 190955Z AUTO 00000KT 10SM CLR 12/00 A2997 RMK AO1 T01220000
KJAQ 190935Z AUTO 00000KT 10SM CLR 13/00 A2998 RMK AO1 T01270000
KJAQ 190915Z AUTO 00000KT 10SM CLR 13/00 A2999 RMK AO1 T01280000
KJAQ 190855Z AUTO 00000KT 10SM CLR 13/00 A2999 RMK AO1 T01260001
KJAQ 190835Z AUTO 00000KT 10SM CLR 13/00 A3000 RMK AO1 T01330000
KJAQ 190815Z AUTO 00000KT 10SM CLR 13/00 A2999 RMK AO1 T01300002
KJAQ 190755Z AUTO 00000KT 10SM CLR 14/00 A3000 RMK AO1 T01360001 402570136
KJAQ 190735Z AUTO 00000KT 10SM CLR 14/00 A3000 RMK AO1 T01440002
KJAQ 190715Z AUTO 00000KT 10SM CLR 14/00 A3000 RMK AO1 T01420003
KJAQ 190655Z AUTO 16003KT 10SM CLR 14/00 A3000 RMK AO1 T01380003
KJAQ 190635Z AUTO 00000KT 10SM CLR 14/00 A3000 RMK AO1 T01410002
KJAQ 190615Z AUTO 00000KT 10SM CLR 15/00 A2999 RMK AO1 T01450001
KJAQ 190555Z AUTO 00000KT 10SM CLR 16/00 A2999 RMK AO1 T01600002 10244 20150
KJAQ 190535Z AUTO 14003KT 10SM CLR 16/00 A2999 RMK AO1 T01600004
KJAQ 190515Z AUTO 00000KT 10SM CLR 15/01 A2999 RMK AO1 T01510005
KJAQ 190455Z AUTO 18004KT 10SM CLR 16/00 A2999 RMK AO1 T01580002
KJAQ 190435Z AUTO 16004KT 10SM CLR 18/00 A3000 RMK AO1 T01760003
KJAQ 190415Z AUTO 11008KT 10SM CLR 18/00 A2999 RMK AO1 T01790003
KJAQ 190355Z AUTO 10009KT 10SM CLR 18/00 A3000 RMK AO1 T01840004
KJAQ 190335Z AUTO 09007KT 10SM CLR 19/00 A3000 RMK AO1 T01910002
KJAQ 190315Z AUTO 00000KT 10SM CLR 20/00 A3000 RMK AO1 T02000000
KJAQ 190255Z AUTO 31003KT 10SM CLR 20/00 A3000 RMK AO1 T02030000
KJAQ 190235Z AUTO 31003KT 10SM CLR 21/00 A3000 RMK AO1 T02070003
KJAQ 190215Z AUTO 30004KT 10SM CLR 21/00 A3000 RMK AO1 T02080000
KJAQ 190155Z AUTO 29008KT 10SM CLR 21/00 A3000 RMK AO1 T02100000
KJAQ 190135Z AUTO 10SM CLR 21/00 A2999 RMK AO1 T02130000
KJAQ 190115Z AUTO 31004KT 10SM CLR 22/00 A2999 RMK AO1 T02210000
KJAQ 190055Z AUTO 30008KT 10SM CLR 23/M01 A2999 RMK AO1 T02301007
KJAQ 190035Z AUTO 30006G14KT 10SM CLR 24/M01 A2999 RMK AO1 T02361011
KJAQ 190015Z AUTO 32006KT 10SM CLR 24/M01 A2999 RMK AO1 T02411008
KJAQ 182355Z AUTO 28006KT 10SM CLR 25/00 A2999 RMK AO1 T02451005 10257 20233
KJAQ 182335Z AUTO 32007KT 10SM CLR 25/M01 A3000 RMK AO1 T02501006
KJAQ 182315Z AUTO 29004KT 10SM CLR 25/M01 A3000 RMK AO1 T02511007
KJAQ 182255Z AUTO 31005KT 10SM CLR 25/M01 A3000 RMK AO1 T02511015
KJAQ 182235Z AUTO 31005KT 10SM CLR 25/M01 A3001 RMK AO1 T02541011
KJAQ 182215Z AUTO 31006KT 10SM CLR 26/M01 A3001 RMK AO1 T02571012
KJAQ 182155Z AUTO 32005KT 10SM CLR 25/M01 A3002 RMK AO1 T02531012
KJAQ 182135Z AUTO 29003KT 10SM CLR 26/M02 A3002 RMK AO1 T02551016
KJAQ 182115Z AUTO 31003KT 10SM CLR 25/M01 A3002 RMK AO1 T02521006